sensor_id;sensor_type;location;lat;lon;timestamp;pressure;altitude;pressure_sealevel;temperature;humidity
39769;BME280;38939;47.824;14.642;2023-03-25T00:00:29;96274.97;;;10.53;88.09
39769;BME280;38939;47.824;14.642;2023-03-25T00:01:33;96280.19;;;10.53;88.16
39769;BME280;38939;47.824;14.642;2023-03-25T00:02:35;96279.97;;;10.55;87.86
39769;BME280;38939;47.824;14.642;2023-03-25T00:03:38;96272.16;;;10.55;87.41
39769;BME280;38939;47.824;14.642;2023-03-25T00:04:53;96264.31;;;10.55;87.75
39769;BME280;38939;47.824;14.642;2023-03-25T00:05:55;96264.53;;;10.53;88.03
39769;BME280;38939;47.824;14.642;2023-03-25T00:06:57;96263.16;;;10.51;88.15
39769;BME280;38939;47.824;14.642;2023-03-25T00:07:59;96265.41;;;10.47;88.30
39769;BME280;38939;47.824;14.642;2023-03-25T00:09:01;96261.63;;;10.43;88.28
39769;BME280;38939;47.824;14.642;2023-03-25T00:10:04;96269.88;;;10.40;87.96
39769;BME280;38939;47.824;14.642;2023-03-25T00:11:06;96257.69;;;10.34;88.37
39769;BME280;38939;47.824;14.642;2023-03-25T00:12:08;96253.53;;;10.33;88.10
39769;BME280;38939;47.824;14.642;2023-03-25T00:13:10;96256.91;;;10.33;88.02
39769;BME280;38939;47.824;14.642;2023-03-25T00:14:14;96260.31;;;10.34;88.09
39769;BME280;38939;47.824;14.642;2023-03-25T00:15:17;96248.09;;;10.34;88.55
39769;BME280;38939;47.824;14.642;2023-03-25T00:16:20;96249.47;;;10.37;88.89
39769;BME280;38939;47.824;14.642;2023-03-25T00:17:22;96240.28;;;10.34;89.34
39769;BME280;38939;47.824;14.642;2023-03-25T00:18:24;96241.47;;;10.32;89.33
39769;BME280;38939;47.824;14.642;2023-03-25T00:19:27;96243.66;;;10.35;89.48
39769;BME280;38939;47.824;14.642;2023-03-25T00:20:29;96239.03;;;10.37;89.24
39769;BME280;38939;47.824;14.642;2023-03-25T00:21:32;96236.22;;;10.38;88.85
39769;BME280;38939;47.824;14.642;2023-03-25T00:22:34;96234.81;;;10.36;88.93
39769;BME280;38939;47.824;14.642;2023-03-25T00:23:42;96235.84;;;10.35;89.05
39769;BME280;38939;47.824;14.642;2023-03-25T00:24:44;96246.28;;;10.35;88.71
39769;BME280;38939;47.824;14.642;2023-03-25T00:25:46;96251.50;;;10.35;88.61
39769;BME280;38939;47.824;14.642;2023-03-25T00:26:48;96252.06;;;10.37;88.64
39769;BME280;38939;47.824;14.642;2023-03-25T00:27:49;96245.03;;;10.37;88.65
39769;BME280;38939;47.824;14.642;2023-03-25T00:28:51;96259.44;;;10.40;88.66
39769;BME280;38939;47.824;14.642;2023-03-25T00:29:53;96253.81;;;10.43;88.33
39769;BME280;38939;47.824;14.642;2023-03-25T00:30:59;96257.78;;;10.46;88.34
39769;BME280;38939;47.824;14.642;2023-03-25T00:32:01;96259.97;;;10.49;88.14
39769;BME280;38939;47.824;14.642;2023-03-25T00:33:03;96255.75;;;10.48;88.21
39769;BME280;38939;47.824;14.642;2023-03-25T00:34:05;96254.19;;;10.47;88.65
39769;BME280;38939;47.824;14.642;2023-03-25T00:35:08;96254.97;;;10.47;88.63
39769;BME280;38939;47.824;14.642;2023-03-25T00:36:11;96250.53;;;10.48;88.18
39769;BME280;38939;47.824;14.642;2023-03-25T00:37:15;96246.34;;;10.47;88.31
39769;BME280;38939;47.824;14.642;2023-03-25T00:38:22;96238.94;;;10.44;87.96
39769;BME280;38939;47.824;14.642;2023-03-25T00:39:25;96238.59;;;10.40;88.09
39769;BME280;38939;47.824;14.642;2023-03-25T00:40:27;96242.22;;;10.39;88.20
39769;BME280;38939;47.824;14.642;2023-03-25T00:41:29;96240.97;;;10.41;88.00
39769;BME280;38939;47.824;14.642;2023-03-25T00:42:31;96251.19;;;10.43;88.21
39769;BME280;38939;47.824;14.642;2023-03-25T00:43:35;96257.69;;;10.34;88.40
39769;BME280;38939;47.824;14.642;2023-03-25T00:44:37;96250.72;;;10.28;88.55
39769;BME280;38939;47.824;14.642;2023-03-25T00:45:38;96253.72;;;10.31;88.48
39769;BME280;38939;47.824;14.642;2023-03-25T00:46:40;96247.84;;;10.36;88.50
39769;BME280;38939;47.824;14.642;2023-03-25T00:47:42;96247.44;;;10.39;88.38
39769;BME280;38939;47.824;14.642;2023-03-25T00:48:44;96251.03;;;10.38;89.07
39769;BME280;38939;47.824;14.642;2023-03-25T00:49:47;96248.44;;;10.38;88.82
39769;BME280;38939;47.824;14.642;2023-03-25T00:50:49;96246.66;;;10.38;88.89
39769;BME280;38939;47.824;14.642;2023-03-25T00:51:51;96249.25;;;10.38;88.83
39769;BME280;38939;47.824;14.642;2023-03-25T00:52:54;96251.41;;;10.41;88.92
39769;BME280;38939;47.824;14.642;2023-03-25T00:53:56;96255.47;;;10.37;89.12
39769;BME280;38939;47.824;14.642;2023-03-25T00:55:02;96260.06;;;10.17;89.70
39769;BME280;38939;47.824;14.642;2023-03-25T00:56:05;96264.59;;;10.03;90.14
39769;BME280;38939;47.824;14.642;2023-03-25T00:57:07;96255.22;;;9.95;89.34
39769;BME280;38939;47.824;14.642;2023-03-25T00:58:09;96251.41;;;9.98;89.34
39769;BME280;38939;47.824;14.642;2023-03-25T00:59:11;96256.19;;;10.01;89.43
39769;BME280;38939;47.824;14.642;2023-03-25T01:00:14;96254.16;;;10.03;89.25
39769;BME280;38939;47.824;14.642;2023-03-25T01:01:17;96256.19;;;10.01;89.38
39769;BME280;38939;47.824;14.642;2023-03-25T01:02:24;96253.78;;;9.99;89.50
39769;BME280;38939;47.824;14.642;2023-03-25T01:03:26;96247.19;;;9.97;89.31
39769;BME280;38939;47.824;14.642;2023-03-25T01:04:29;96258.19;;;9.99;89.83
39769;BME280;38939;47.824;14.642;2023-03-25T01:05:31;96265.03;;;10.00;89.78
39769;BME280;38939;47.824;14.642;2023-03-25T01:06:34;96269.66;;;9.98;89.84
39769;BME280;38939;47.824;14.642;2023-03-25T01:07:37;96272.66;;;9.95;89.50
39769;BME280;38939;47.824;14.642;2023-03-25T01:08:40;96277.88;;;9.95;88.98
39769;BME280;38939;47.824;14.642;2023-03-25T01:09:42;96271.09;;;9.94;89.20
39769;BME280;38939;47.824;14.642;2023-03-25T01:10:47;96266.28;;;9.91;89.31
39769;BME280;38939;47.824;14.642;2023-03-25T01:11:49;96269.84;;;9.96;89.74
39769;BME280;38939;47.824;14.642;2023-03-25T01:12:50;96275.44;;;10.00;89.39
39769;BME280;38939;47.824;14.642;2023-03-25T01:13:53;96266.41;;;10.02;89.73
39769;BME280;38939;47.824;14.642;2023-03-25T01:14:55;96264.16;;;10.06;89.62
39769;BME280;38939;47.824;14.642;2023-03-25T01:15:57;96262.50;;;10.12;89.42
39769;BME280;38939;47.824;14.642;2023-03-25T01:16:59;96260.06;;;10.17;89.28
39769;BME280;38939;47.824;14.642;2023-03-25T01:18:01;96265.63;;;10.20;89.12
39769;BME280;38939;47.824;14.642;2023-03-25T01:19:03;96266.00;;;10.24;89.09
39769;BME280;38939;47.824;14.642;2023-03-25T01:20:05;96274.19;;;10.28;88.76
39769;BME280;38939;47.824;14.642;2023-03-25T01:21:09;96274.59;;;10.31;88.68
39769;BME280;38939;47.824;14.642;2023-03-25T01:22:11;96275.16;;;10.33;88.15
39769;BME280;38939;47.824;14.642;2023-03-25T01:23:13;96275.16;;;10.33;88.01
39769;BME280;38939;47.824;14.642;2023-03-25T01:24:15;96267.13;;;10.35;88.13
39769;BME280;38939;47.824;14.642;2023-03-25T01:25:17;96276.78;;;10.34;88.37
39769;BME280;38939;47.824;14.642;2023-03-25T01:26:19;96281.41;;;10.32;87.81
39769;BME280;38939;47.824;14.642;2023-03-25T01:27:21;96286.84;;;10.31;88.04
39769;BME280;38939;47.824;14.642;2023-03-25T01:28:25;96286.22;;;10.29;87.80
39769;BME280;38939;47.824;14.642;2023-03-25T01:29:28;96287.84;;;10.30;87.59
39769;BME280;38939;47.824;14.642;2023-03-25T01:30:30;96290.06;;;10.26;87.47
39769;BME280;38939;47.824;14.642;2023-03-25T01:31:32;96270.41;;;10.24;87.31
39769;BME280;38939;47.824;14.642;2023-03-25T01:32:34;96275.03;;;10.21;87.70
39769;BME280;38939;47.824;14.642;2023-03-25T01:33:36;96290.47;;;10.23;87.88
39769;BME280;38939;47.824;14.642;2023-03-25T01:34:38;96284.47;;;10.23;87.75
39769;BME280;38939;47.824;14.642;2023-03-25T01:35:40;96284.88;;;10.19;87.84
39769;BME280;38939;47.824;14.642;2023-03-25T01:36:42;96273.09;;;10.17;87.43
39769;BME280;38939;47.824;14.642;2023-03-25T01:37:47;96277.66;;;10.21;87.38
39769;BME280;38939;47.824;14.642;2023-03-25T01:38:49;96277.22;;;10.25;87.44
39769;BME280;38939;47.824;14.642;2023-03-25T01:39:51;96275.03;;;10.21;87.38
39769;BME280;38939;47.824;14.642;2023-03-25T01:40:53;96277.50;;;10.16;87.18
39769;BME280;38939;47.824;14.642;2023-03-25T01:41:55;96272.13;;;10.11;87.15
39769;BME280;38939;47.824;14.642;2023-03-25T01:42:57;96261.78;;;10.05;87.07
39769;BME280;38939;47.824;14.642;2023-03-25T01:45:12;96255.97;;;10.02;86.97
39769;BME280;38939;47.824;14.642;2023-03-25T01:46:14;96259.81;;;10.00;87.39
39769;BME280;38939;47.824;14.642;2023-03-25T01:47:17;96253.06;;;9.92;87.45
39769;BME280;38939;47.824;14.642;2023-03-25T01:49:30;96262.31;;;9.88;88.11
39769;BME280;38939;47.824;14.642;2023-03-25T01:50:34;96261.53;;;9.88;88.13
39769;BME280;38939;47.824;14.642;2023-03-25T01:51:37;96262.09;;;9.90;88.30
39769;BME280;38939;47.824;14.642;2023-03-25T01:52:44;96265.44;;;9.97;88.50
39769;BME280;38939;47.824;14.642;2023-03-25T01:53:49;96265.44;;;9.97;88.44
39769;BME280;38939;47.824;14.642;2023-03-25T01:54:52;96260.66;;;9.94;88.38
39769;BME280;38939;47.824;14.642;2023-03-25T01:55:54;96257.25;;;9.93;88.79
39769;BME280;38939;47.824;14.642;2023-03-25T01:56:57;96259.06;;;9.93;88.56
39769;BME280;38939;47.824;14.642;2023-03-25T01:58:00;96253.44;;;9.96;88.52
39769;BME280;38939;47.824;14.642;2023-03-25T01:59:04;96257.78;;;10.02;88.14
39769;BME280;38939;47.824;14.642;2023-03-25T02:00:06;96253.00;;;9.99;88.32
39769;BME280;38939;47.824;14.642;2023-03-25T02:01:10;96258.66;;;9.96;88.34
39769;BME280;38939;47.824;14.642;2023-03-25T02:02:14;96252.41;;;9.97;88.13
39769;BME280;38939;47.824;14.642;2023-03-25T02:03:18;96241.00;;;9.98;88.21
39769;BME280;38939;47.824;14.642;2023-03-25T02:04:32;96248.63;;;9.93;88.00
39769;BME280;38939;47.824;14.642;2023-03-25T02:06:45;96248.25;;;9.89;88.63
39769;BME280;38939;47.824;14.642;2023-03-25T02:07:51;96247.25;;;9.90;88.61
39769;BME280;38939;47.824;14.642;2023-03-25T02:08:55;96242.84;;;9.91;88.50
39769;BME280;38939;47.824;14.642;2023-03-25T02:09:59;96235.03;;;9.91;88.87
39769;BME280;38939;47.824;14.642;2023-03-25T02:11:03;96242.44;;;9.94;88.67
39769;BME280;38939;47.824;14.642;2023-03-25T02:12:05;96246.63;;;9.95;88.49
39769;BME280;38939;47.824;14.642;2023-03-25T02:13:07;96236.41;;;9.93;88.38
39769;BME280;38939;47.824;14.642;2023-03-25T02:14:10;96240.41;;;9.96;88.41
39769;BME280;38939;47.824;14.642;2023-03-25T02:15:14;96241.97;;;9.97;88.65
39769;BME280;38939;47.824;14.642;2023-03-25T02:17:22;96241.75;;;9.73;89.11
39769;BME280;38939;47.824;14.642;2023-03-25T02:19:38;96241.94;;;9.78;88.48
39769;BME280;38939;47.824;14.642;2023-03-25T02:21:12;96240.50;;;9.82;88.36
39769;BME280;38939;47.824;14.642;2023-03-25T02:23:35;96258.16;;;9.80;88.20
39769;BME280;38939;47.824;14.642;2023-03-25T02:24:59;96259.53;;;9.83;88.15
39769;BME280;38939;47.824;14.642;2023-03-25T02:28:17;96252.03;;;9.93;88.02
39769;BME280;38939;47.824;14.642;2023-03-25T02:30:29;96252.84;;;9.94;87.73
39769;BME280;38939;47.824;14.642;2023-03-25T02:34:05;96250.06;;;9.64;88.70
39769;BME280;38939;47.824;14.642;2023-03-25T02:36:31;96247.69;;;9.62;89.08
39769;BME280;38939;47.824;14.642;2023-03-25T02:43:28;96245.91;;;9.81;88.72
39769;BME280;38939;47.824;14.642;2023-03-25T02:44:48;96250.28;;;9.87;88.46
39769;BME280;38939;47.824;14.642;2023-03-25T02:45:57;96247.06;;;9.92;88.38
39769;BME280;38939;47.824;14.642;2023-03-25T02:47:06;96248.63;;;9.93;88.57
39769;BME280;38939;47.824;14.642;2023-03-25T02:48:22;96247.06;;;9.92;88.37
39769;BME280;38939;47.824;14.642;2023-03-25T02:50:14;96240.03;;;9.92;88.29
39769;BME280;38939;47.824;14.642;2023-03-25T02:50:57;96237.63;;;9.91;88.20
39769;BME280;38939;47.824;14.642;2023-03-25T02:52:13;96242.69;;;9.86;87.90
39769;BME280;38939;47.824;14.642;2023-03-25T02:53:36;96252.16;;;9.80;87.86
39769;BME280;38939;47.824;14.642;2023-03-25T02:54:41;96249.09;;;9.83;87.93
39769;BME280;38939;47.824;14.642;2023-03-25T02:55:46;96251.09;;;9.88;88.06
39769;BME280;38939;47.824;14.642;2023-03-25T02:56:51;96251.44;;;9.91;88.34
39769;BME280;38939;47.824;14.642;2023-03-25T02:58:01;96254.69;;;9.87;88.26
39769;BME280;38939;47.824;14.642;2023-03-25T02:59:07;96250.50;;;9.86;88.12
39769;BME280;38939;47.824;14.642;2023-03-25T03:00:12;96251.09;;;9.88;88.58
39769;BME280;38939;47.824;14.642;2023-03-25T03:01:18;96247.25;;;9.90;88.65
39769;BME280;38939;47.824;14.642;2023-03-25T03:02:25;96257.03;;;9.95;88.71
39769;BME280;38939;47.824;14.642;2023-03-25T03:03:28;96246.63;;;9.95;88.95
39769;BME280;38939;47.824;14.642;2023-03-25T03:04:30;96260.09;;;9.92;88.49
39769;BME280;38939;47.824;14.642;2023-03-25T03:05:38;96262.09;;;9.90;88.46
39769;BME280;38939;47.824;14.642;2023-03-25T03:06:42;96259.91;;;9.87;87.94
39769;BME280;38939;47.824;14.642;2023-03-25T03:07:45;96247.53;;;9.82;88.04
39769;BME280;38939;47.824;14.642;2023-03-25T03:09:00;96241.50;;;9.81;88.27
39769;BME280;38939;47.824;14.642;2023-03-25T03:10:26;96250.50;;;9.86;88.61
39769;BME280;38939;47.824;14.642;2023-03-25T03:12:14;96250.94;;;9.82;88.24
39769;BME280;38939;47.824;14.642;2023-03-25T03:18:07;96243.56;;;9.48;88.35
39769;BME280;38939;47.824;14.642;2023-03-25T03:23:31;96245.22;;;9.67;89.00
39769;BME280;38939;47.824;14.642;2023-03-25T03:24:39;96244.59;;;9.72;88.94
39769;BME280;38939;47.824;14.642;2023-03-25T03:25:47;96243.38;;;9.74;88.82
39769;BME280;38939;47.824;14.642;2023-03-25T03:26:52;96243.97;;;9.76;88.48
39769;BME280;38939;47.824;14.642;2023-03-25T03:30:21;96248.78;;;9.73;88.24
39769;BME280;38939;47.824;14.642;2023-03-25T03:31:34;96253.63;;;9.69;88.10
39769;BME280;38939;47.824;14.642;2023-03-25T03:34:07;96240.72;;;9.56;88.51
39769;BME280;38939;47.824;14.642;2023-03-25T03:35:25;96259.34;;;9.53;88.95
39769;BME280;38939;47.824;14.642;2023-03-25T03:36:30;96242.28;;;9.57;88.96
39769;BME280;38939;47.824;14.642;2023-03-25T03:37:34;96242.47;;;9.62;88.92
39769;BME280;38939;47.824;14.642;2023-03-25T03:38:40;96238.44;;;9.66;88.59
39769;BME280;38939;47.824;14.642;2023-03-25T03:39:44;96242.22;;;9.70;88.79
39769;BME280;38939;47.824;14.642;2023-03-25T03:40:49;96245.81;;;9.69;88.69
39769;BME280;38939;47.824;14.642;2023-03-25T03:41:53;96241.72;;;9.55;89.35
39769;BME280;38939;47.824;14.642;2023-03-25T03:43:58;96243.41;;;9.43;89.60
39769;BME280;38939;47.824;14.642;2023-03-25T03:45:11;96250.56;;;9.47;89.76
39769;BME280;38939;47.824;14.642;2023-03-25T03:46:26;96254.56;;;9.50;89.18
39769;BME280;38939;47.824;14.642;2023-03-25T03:47:31;96248.34;;;9.51;88.78
39769;BME280;38939;47.824;14.642;2023-03-25T03:48:39;96236.13;;;9.51;87.67
39769;BME280;38939;47.824;14.642;2023-03-25T03:49:43;96238.09;;;9.56;87.36
39769;BME280;38939;47.824;14.642;2023-03-25T03:50:49;96234.66;;;9.62;87.25
39769;BME280;38939;47.824;14.642;2023-03-25T03:52:29;96239.66;;;9.64;86.78
39769;BME280;38939;47.824;14.642;2023-03-25T03:53:27;96238.84;;;9.63;86.28
39769;BME280;38939;47.824;14.642;2023-03-25T03:54:31;96244.91;;;9.57;86.81
39769;BME280;38939;47.824;14.642;2023-03-25T03:55:40;96260.97;;;9.47;86.96
39769;BME280;38939;47.824;14.642;2023-03-25T03:56:48;96259.81;;;9.43;87.35
39769;BME280;38939;47.824;14.642;2023-03-25T03:58:01;96246.06;;;9.36;87.49
39769;BME280;38939;47.824;14.642;2023-03-25T03:59:05;96247.09;;;9.28;87.98
39769;BME280;38939;47.824;14.642;2023-03-25T04:00:15;96244.94;;;9.25;88.98
39769;BME280;38939;47.824;14.642;2023-03-25T04:01:20;96251.72;;;9.26;88.92
39769;BME280;38939;47.824;14.642;2023-03-25T04:02:36;96259.91;;;9.30;88.89
39769;BME280;38939;47.824;14.642;2023-03-25T04:03:48;96257.09;;;9.31;88.99
39769;BME280;38939;47.824;14.642;2023-03-25T04:04:52;96246.91;;;9.30;89.14
39769;BME280;38939;47.824;14.642;2023-03-25T04:06:53;96237.28;;;9.30;89.34
39769;BME280;38939;47.824;14.642;2023-03-25T04:07:37;96240.91;;;9.23;90.01
39769;BME280;38939;47.824;14.642;2023-03-25T04:09:10;96246.38;;;9.14;90.42
39769;BME280;38939;47.824;14.642;2023-03-25T04:10:45;96250.19;;;9.12;90.15
39769;BME280;38939;47.824;14.642;2023-03-25T04:12:02;96250.19;;;9.12;89.72
39769;BME280;38939;47.824;14.642;2023-03-25T04:13:12;96241.94;;;9.15;89.77
39769;BME280;38939;47.824;14.642;2023-03-25T04:14:17;96246.38;;;9.14;89.44
39769;BME280;38939;47.824;14.642;2023-03-25T04:15:20;96250.34;;;9.17;89.13
39769;BME280;38939;47.824;14.642;2023-03-25T04:16:22;96257.56;;;9.15;89.70
39769;BME280;38939;47.824;14.642;2023-03-25T04:17:26;96253.56;;;9.19;89.36
39769;BME280;38939;47.824;14.642;2023-03-25T04:18:31;96252.94;;;9.24;89.63
39769;BME280;38939;47.824;14.642;2023-03-25T04:19:34;96248.94;;;9.21;90.08
39769;BME280;38939;47.824;14.642;2023-03-25T04:20:37;96253.19;;;9.15;89.59
39769;BME280;38939;47.824;14.642;2023-03-25T04:21:46;96250.00;;;9.13;89.80
39769;BME280;38939;47.824;14.642;2023-03-25T04:22:51;96256.38;;;9.11;90.30
39769;BME280;38939;47.824;14.642;2023-03-25T04:23:53;96252.78;;;9.12;89.55
39769;BME280;38939;47.824;14.642;2023-03-25T04:24:55;96251.16;;;9.17;89.91
39769;BME280;38939;47.824;14.642;2023-03-25T04:26:00;96256.75;;;9.21;89.44
39769;BME280;38939;47.824;14.642;2023-03-25T04:27:03;96266.16;;;9.22;89.29
39769;BME280;38939;47.824;14.642;2023-03-25T04:28:05;96269.53;;;9.23;89.98
39769;BME280;38939;47.824;14.642;2023-03-25T04:29:08;96270.31;;;9.30;89.51
39769;BME280;38939;47.824;14.642;2023-03-25T04:30:11;96272.28;;;9.34;89.12
39769;BME280;38939;47.824;14.642;2023-03-25T04:31:13;96274.25;;;9.39;89.49
39769;BME280;38939;47.824;14.642;2023-03-25T04:32:16;96275.44;;;9.43;89.14
39769;BME280;38939;47.824;14.642;2023-03-25T04:33:18;96280.03;;;9.48;89.13
39769;BME280;38939;47.824;14.642;2023-03-25T04:34:21;96270.59;;;9.53;88.69
39769;BME280;38939;47.824;14.642;2023-03-25T04:35:23;96271.97;;;9.56;88.66
39769;BME280;38939;47.824;14.642;2023-03-25T04:36:27;96263.38;;;9.55;88.39
39769;BME280;38939;47.824;14.642;2023-03-25T04:37:29;96253.16;;;9.54;88.67
39769;BME280;38939;47.824;14.642;2023-03-25T04:38:34;96266.38;;;9.52;88.30
39769;BME280;38939;47.824;14.642;2023-03-25T04:39:38;96262.59;;;9.48;88.58
39769;BME280;38939;47.824;14.642;2023-03-25T04:40:40;96270.22;;;9.43;88.35
39769;BME280;38939;47.824;14.642;2023-03-25T04:41:48;96274.66;;;9.43;89.00
39769;BME280;38939;47.824;14.642;2023-03-25T04:42:51;96277.03;;;9.44;88.19
39769;BME280;38939;47.824;14.642;2023-03-25T04:43:54;96281.47;;;9.44;88.12
39769;BME280;38939;47.824;14.642;2023-03-25T04:44:56;96271.03;;;9.44;88.36
39769;BME280;38939;47.824;14.642;2023-03-25T04:45:58;96258.03;;;9.44;88.27
39769;BME280;38939;47.824;14.642;2023-03-25T04:47:01;96262.00;;;9.46;88.40
39769;BME280;38939;47.824;14.642;2023-03-25T04:48:03;96256.16;;;9.51;88.29
39769;BME280;38939;47.824;14.642;2023-03-25T04:49:09;96264.75;;;9.51;88.20
39769;BME280;38939;47.824;14.642;2023-03-25T04:50:22;96269.78;;;9.53;88.62
39769;BME280;38939;47.824;14.642;2023-03-25T04:51:24;96269.56;;;9.54;88.71
39769;BME280;38939;47.824;14.642;2023-03-25T04:52:26;96268.22;;;9.45;87.99
39769;BME280;38939;47.824;14.642;2023-03-25T04:53:28;96278.69;;;9.38;88.63
39769;BME280;38939;47.824;14.642;2023-03-25T04:54:30;96274.66;;;9.43;88.53
39769;BME280;38939;47.824;14.642;2023-03-25T04:55:32;96276.59;;;9.47;88.50
39769;BME280;38939;47.824;14.642;2023-03-25T04:56:35;96268.59;;;9.49;88.77
39769;BME280;38939;47.824;14.642;2023-03-25T04:57:37;96259.47;;;9.39;88.49
39769;BME280;38939;47.824;14.642;2023-03-25T04:58:39;96263.63;;;9.40;89.20
39769;BME280;38939;47.824;14.642;2023-03-25T04:59:41;96266.44;;;9.39;88.78
39769;BME280;38939;47.824;14.642;2023-03-25T05:00:45;96261.47;;;9.37;88.79
39769;BME280;38939;47.824;14.642;2023-03-25T05:01:50;96263.06;;;9.38;88.69
39769;BME280;38939;47.824;14.642;2023-03-25T05:02:54;96253.22;;;9.40;88.93
39769;BME280;38939;47.824;14.642;2023-03-25T05:04:02;96259.91;;;9.30;88.58
39769;BME280;38939;47.824;14.642;2023-03-25T05:05:08;96249.34;;;9.18;88.75
39769;BME280;38939;47.824;14.642;2023-03-25T05:06:10;96260.34;;;9.20;88.81
39769;BME280;38939;47.824;14.642;2023-03-25T05:07:11;96270.97;;;9.18;89.15
39769;BME280;38939;47.824;14.642;2023-03-25T05:08:13;96271.56;;;9.20;89.04
39769;BME280;38939;47.824;14.642;2023-03-25T05:09:18;96274.75;;;9.23;88.35
39769;BME280;38939;47.824;14.642;2023-03-25T05:10:23;96271.53;;;9.27;88.29
39769;BME280;38939;47.824;14.642;2023-03-25T05:11:27;96280.94;;;9.28;88.27
39769;BME280;38939;47.824;14.642;2023-03-25T05:12:30;96285.50;;;9.33;88.71
39769;BME280;38939;47.824;14.642;2023-03-25T05:13:32;96291.94;;;9.30;88.47
39769;BME280;38939;47.824;14.642;2023-03-25T05:14:34;96296.59;;;9.21;88.54
39769;BME280;38939;47.824;14.642;2023-03-25T05:15:36;96299.22;;;9.15;88.74
39769;BME280;38939;47.824;14.642;2023-03-25T05:16:42;96322.88;;;9.13;88.83
39769;BME280;38939;47.824;14.642;2023-03-25T05:17:44;96329.84;;;9.13;89.22
39769;BME280;38939;47.824;14.642;2023-03-25T05:18:47;96324.25;;;9.16;88.88
39769;BME280;38939;47.824;14.642;2023-03-25T05:19:49;96305.19;;;9.22;89.61
39769;BME280;38939;47.824;14.642;2023-03-25T05:20:53;96288.75;;;9.28;89.34
39769;BME280;38939;47.824;14.642;2023-03-25T05:21:57;96301.38;;;9.31;89.21
39769;BME280;38939;47.824;14.642;2023-03-25T05:23:03;96304.38;;;9.28;88.85
39769;BME280;38939;47.824;14.642;2023-03-25T05:24:07;96300.34;;;9.32;88.62
39769;BME280;38939;47.824;14.642;2023-03-25T05:25:11;96280.09;;;9.34;89.21
39769;BME280;38939;47.824;14.642;2023-03-25T05:26:12;96281.13;;;9.33;88.35
39769;BME280;38939;47.824;14.642;2023-03-25T05:27:15;96286.47;;;9.38;87.74
39769;BME280;38939;47.824;14.642;2023-03-25T05:28:20;96285.06;;;9.43;87.24
39769;BME280;38939;47.824;14.642;2023-03-25T05:29:23;96288.09;;;9.39;86.21
39769;BME280;38939;47.824;14.642;2023-03-25T05:30:24;96288.34;;;9.25;87.28
39769;BME280;38939;47.824;14.642;2023-03-25T05:31:34;96290.59;;;9.21;87.64
39769;BME280;38939;47.824;14.642;2023-03-25T05:32:36;96280.78;;;9.23;87.37
39769;BME280;38939;47.824;14.642;2023-03-25T05:33:42;96283.34;;;9.30;87.31
39769;BME280;38939;47.824;14.642;2023-03-25T05:34:44;96295.13;;;9.32;86.83
39769;BME280;38939;47.824;14.642;2023-03-25T05:35:49;96285.91;;;9.36;87.00
39769;BME280;38939;47.824;14.642;2023-03-25T05:36:52;96298.28;;;9.41;86.60
39769;BME280;38939;47.824;14.642;2023-03-25T05:37:54;96311.88;;;9.43;86.03
39769;BME280;38939;47.824;14.642;2023-03-25T05:38:57;96314.88;;;9.47;85.43
39769;BME280;38939;47.824;14.642;2023-03-25T05:39:59;96314.25;;;9.51;85.41
39769;BME280;38939;47.824;14.642;2023-03-25T05:41:15;96316.81;;;9.58;85.68
39769;BME280;38939;47.824;14.642;2023-03-25T05:42:18;96309.41;;;9.61;85.83
39769;BME280;38939;47.824;14.642;2023-03-25T05:43:23;96306.16;;;9.66;85.79
39769;BME280;38939;47.824;14.642;2023-03-25T05:44:25;96301.94;;;9.65;84.77
39769;BME280;38939;47.824;14.642;2023-03-25T05:45:28;96313.44;;;9.57;84.43
39769;BME280;38939;47.824;14.642;2023-03-25T05:46:29;96314.63;;;9.55;83.96
39769;BME280;38939;47.824;14.642;2023-03-25T05:47:32;96313.44;;;9.51;83.90
39769;BME280;38939;47.824;14.642;2023-03-25T05:48:34;96310.84;;;9.51;83.88
39769;BME280;38939;47.824;14.642;2023-03-25T05:49:36;96302.88;;;9.46;83.68
39769;BME280;38939;47.824;14.642;2023-03-25T05:50:38;96309.09;;;9.45;83.89
39769;BME280;38939;47.824;14.642;2023-03-25T05:51:43;96313.28;;;9.46;83.22
39769;BME280;38939;47.824;14.642;2023-03-25T05:52:45;96311.28;;;9.48;83.40
39769;BME280;38939;47.824;14.642;2023-03-25T05:53:50;96309.66;;;9.47;83.50
39769;BME280;38939;47.824;14.642;2023-03-25T05:54:52;96313.06;;;9.47;84.31
39769;BME280;38939;47.824;14.642;2023-03-25T05:55:54;96315.91;;;9.46;82.88
39769;BME280;38939;47.824;14.642;2023-03-25T05:56:56;96323.13;;;9.44;83.17
39769;BME280;38939;47.824;14.642;2023-03-25T05:57:58;96325.72;;;9.44;83.69
39769;BME280;38939;47.824;14.642;2023-03-25T05:59:00;96323.47;;;9.47;83.55
39769;BME280;38939;47.824;14.642;2023-03-25T06:00:03;96331.94;;;9.43;83.98
39769;BME280;38939;47.824;14.642;2023-03-25T06:01:12;96320.13;;;9.40;84.13
39769;BME280;38939;47.824;14.642;2023-03-25T06:02:33;96316.31;;;9.43;84.52
39769;BME280;38939;47.824;14.642;2023-03-25T06:03:36;96319.50;;;9.45;83.89
39769;BME280;38939;47.824;14.642;2023-03-25T06:04:39;96321.09;;;9.46;83.23
39769;BME280;38939;47.824;14.642;2023-03-25T06:05:44;96329.66;;;9.53;83.18
39769;BME280;38939;47.824;14.642;2023-03-25T06:06:46;96321.84;;;9.53;82.73
39769;BME280;38939;47.824;14.642;2023-03-25T06:07:48;96334.66;;;9.54;83.20
39769;BME280;38939;47.824;14.642;2023-03-25T06:08:50;96320.28;;;9.52;83.61
39769;BME280;38939;47.824;14.642;2023-03-25T06:09:52;96317.47;;;9.53;83.56
39769;BME280;38939;47.824;14.642;2023-03-25T06:10:55;96307.06;;;9.53;84.51
39769;BME280;38939;47.824;14.642;2023-03-25T06:12:02;96308.44;;;9.49;85.16
39769;BME280;38939;47.824;14.642;2023-03-25T06:13:05;96319.28;;;9.46;84.99
39769;BME280;38939;47.824;14.642;2023-03-25T06:14:07;96323.47;;;9.47;85.23
39769;BME280;38939;47.824;14.642;2023-03-25T06:15:10;96323.88;;;9.51;85.29
39769;BME280;38939;47.824;14.642;2023-03-25T06:16:12;96319.84;;;9.55;85.04
39769;BME280;38939;47.824;14.642;2023-03-25T06:17:15;96322.44;;;9.55;84.10